sensor_id;sensor_type;location;lat;lon;timestamp;P1;P2;P0
40371;PMS5003;28564;53.346;-6.554;2023-03-11T00:02:16;40;30;
40371;PMS5003;28564;53.346;-6.554;2023-03-11T00:04:43;40;33;
40371;PMS5003;28564;53.346;-6.554;2023-03-11T00:07:10;33;30;
40371;PMS5003;28564;53.346;-6.554;2023-03-11T00:09:38;29;26;
40371;PMS5003;28564;53.346;-6.554;2023-03-11T00:12:06;47;38;
40371;PMS5003;28564;53.346;-6.554;2023-03-11T00:14:34;40;38;
40371;PMS5003;28564;53.346;-6.554;2023-03-11T00:17:02;40;38;
40371;PMS5003;28564;53.346;-6.554;2023-03-11T00:19:29;43;37;
40371;PMS5003;28564;53.346;-6.554;2023-03-11T00:21:56;41;39;
40371;PMS5003;28564;53.346;-6.554;2023-03-11T00:24:23;43;36;
40371;PMS5003;28564;53.346;-6.554;2023-03-11T00:26:51;53;43;
40371;PMS5003;28564;53.346;-6.554;2023-03-11T00:29:18;53;43;
40371;PMS5003;28564;53.346;-6.554;2023-03-11T00:31:46;49;36;
40371;PMS5003;28564;53.346;-6.554;2023-03-11T00:34:14;50;42;
40371;PMS5003;28564;53.346;-6.554;2023-03-11T00:36:41;56;40;
40371;PMS5003;28564;53.346;-6.554;2023-03-11T00:39:08;29;29;
40371;PMS5003;28564;53.346;-6.554;2023-03-11T00:41:35;41;34;
40371;PMS5003;28564;53.346;-6.554;2023-03-11T00:44:03;49;43;
40371;PMS5003;28564;53.346;-6.554;2023-03-11T00:46:30;51;36;
40371;PMS5003;28564;53.346;-6.554;2023-03-11T00:48:57;34;31;
40371;PMS5003;28564;53.346;-6.554;2023-03-11T00:51:30;34;30;
40371;PMS5003;28564;53.346;-6.554;2023-03-11T00:53:57;44;34;
40371;PMS5003;28564;53.346;-6.554;2023-03-11T00:56:24;42;39;
40371;PMS5003;28564;53.346;-6.554;2023-03-11T00:58:51;44;35;
40371;PMS5003;28564;53.346;-6.554;2023-03-11T01:01:19;38;35;
40371;PMS5003;28564;53.346;-6.554;2023-03-11T01:03:47;41;36;
40371;PMS5003;28564;53.346;-6.554;2023-03-11T01:06:14;29;28;
40371;PMS5003;28564;53.346;-6.554;2023-03-11T01:08:41;30;29;
40371;PMS5003;28564;53.346;-6.554;2023-03-11T01:11:08;42;32;
40371;PMS5003;28564;53.346;-6.554;2023-03-11T01:13:36;41;37;
40371;PMS5003;28564;53.346;-6.554;2023-03-11T01:16:04;37;32;
40371;PMS5003;28564;53.346;-6.554;2023-03-11T01:18:32;35;27;
40371;PMS5003;28564;53.346;-6.554;2023-03-11T01:20:59;30;27;
40371;PMS5003;28564;53.346;-6.554;2023-03-11T01:23:27;30;27;
40371;PMS5003;28564;53.346;-6.554;2023-03-11T01:25:54;37;35;
40371;PMS5003;28564;53.346;-6.554;2023-03-11T01:28:22;41;35;
40371;PMS5003;28564;53.346;-6.554;2023-03-11T01:30:49;48;41;
40371;PMS5003;28564;53.346;-6.554;2023-03-11T01:33:17;40;31;
40371;PMS5003;28564;53.346;-6.554;2023-03-11T01:35:45;29;27;
40371;PMS5003;28564;53.346;-6.554;2023-03-11T01:38:13;30;25;
40371;PMS5003;28564;53.346;-6.554;2023-03-11T01:40:42;33;31;
40371;PMS5003;28564;53.346;-6.554;2023-03-11T01:44:16;38;33;
40371;PMS5003;28564;53.346;-6.554;2023-03-11T01:47:53;30;27;
40371;PMS5003;28564;53.346;-6.554;2023-03-11T01:50:21;29;24;
40371;PMS5003;28564;53.346;-6.554;2023-03-11T01:52:51;33;26;
40371;PMS5003;28564;53.346;-6.554;2023-03-11T01:55:19;35;28;
40371;PMS5003;28564;53.346;-6.554;2023-03-11T01:57:47;29;27;
40371;PMS5003;28564;53.346;-6.554;2023-03-11T02:00:16;31;27;
40371;PMS5003;28564;53.346;-6.554;2023-03-11T02:02:45;27;24;
40371;PMS5003;28564;53.346;-6.554;2023-03-11T02:05:16;27;20;
40371;PMS5003;28564;53.346;-6.554;2023-03-11T02:07:45;30;24;
40371;PMS5003;28564;53.346;-6.554;2023-03-11T02:10:15;24;20;
40371;PMS5003;28564;53.346;-6.554;2023-03-11T02:10:16;23;18;
40371;PMS5003;28564;53.346;-6.554;2023-03-11T02:12:43;28;27;
40371;PMS5003;28564;53.346;-6.554;2023-03-11T02:15:13;28;25;
40371;PMS5003;28564;53.346;-6.554;2023-03-11T02:17:41;27;21;
40371;PMS5003;28564;53.346;-6.554;2023-03-11T02:20:13;29;24;
40371;PMS5003;28564;53.346;-6.554;2023-03-11T02:22:48;25;23;
40371;PMS5003;28564;53.346;-6.554;2023-03-11T02:25:19;29;29;
40371;PMS5003;28564;53.346;-6.554;2023-03-11T02:27:53;33;27;
40371;PMS5003;28564;53.346;-6.554;2023-03-11T02:30:23;42;40;
40371;PMS5003;28564;53.346;-6.554;2023-03-11T02:32:52;41;34;
40371;PMS5003;28564;53.346;-6.554;2023-03-11T02:35:21;42;34;
40371;PMS5003;28564;53.346;-6.554;2023-03-11T02:37:50;41;34;
40371;PMS5003;28564;53.346;-6.554;2023-03-11T02:40:30;31;28;
40371;PMS5003;28564;53.346;-6.554;2023-03-11T02:43:08;31;25;
40371;PMS5003;28564;53.346;-6.554;2023-03-11T02:45:38;31;25;
40371;PMS5003;28564;53.346;-6.554;2023-03-11T02:48:08;26;25;
40371;PMS5003;28564;53.346;-6.554;2023-03-11T02:50:37;29;23;
40371;PMS5003;28564;53.346;-6.554;2023-03-11T02:53:05;23;20;
40371;PMS5003;28564;53.346;-6.554;2023-03-11T02:55:33;36;29;
40371;PMS5003;28564;53.346;-6.554;2023-03-11T02:58:01;23;19;
40371;PMS5003;28564;53.346;-6.554;2023-03-11T03:00:28;23;22;
40371;PMS5003;28564;53.346;-6.554;2023-03-11T03:02:56;22;17;
40371;PMS5003;28564;53.346;-6.554;2023-03-11T03:05:28;23;19;
40371;PMS5003;28564;53.346;-6.554;2023-03-11T03:07:56;22;19;
40371;PMS5003;28564;53.346;-6.554;2023-03-11T03:10:23;26;23;
40371;PMS5003;28564;53.346;-6.554;2023-03-11T03:12:52;21;19;
40371;PMS5003;28564;53.346;-6.554;2023-03-11T03:15:20;19;16;
40371;PMS5003;28564;53.346;-6.554;2023-03-11T03:17:47;15;15;
40371;PMS5003;28564;53.346;-6.554;2023-03-11T03:20:14;16;11;
40371;PMS5003;28564;53.346;-6.554;2023-03-11T03:22:41;19;15;
40371;PMS5003;28564;53.346;-6.554;2023-03-11T03:25:09;17;14;
40371;PMS5003;28564;53.346;-6.554;2023-03-11T03:27:37;12;11;
40371;PMS5003;28564;53.346;-6.554;2023-03-11T03:30:05;13;13;
40371;PMS5003;28564;53.346;-6.554;2023-03-11T03:32:34;11;11;
40371;PMS5003;28564;53.346;-6.554;2023-03-11T03:35:02;12;12;
40371;PMS5003;28564;53.346;-6.554;2023-03-11T03:37:31;13;12;
40371;PMS5003;28564;53.346;-6.554;2023-03-11T03:39:59;13;12;
40371;PMS5003;28564;53.346;-6.554;2023-03-11T03:42:27;15;10;
40371;PMS5003;28564;53.346;-6.554;2023-03-11T03:44:54;15;12;
40371;PMS5003;28564;53.346;-6.554;2023-03-11T03:47:21;13;11;
40371;PMS5003;28564;53.346;-6.554;2023-03-11T03:49:48;18;16;
40371;PMS5003;28564;53.346;-6.554;2023-03-11T03:52:16;12;11;
40371;PMS5003;28564;53.346;-6.554;2023-03-11T03:54:43;11;10;
40371;PMS5003;28564;53.346;-6.554;2023-03-11T03:57:11;12;10;
40371;PMS5003;28564;53.346;-6.554;2023-03-11T03:59:38;12;12;
40371;PMS5003;28564;53.346;-6.554;2023-03-11T04:02:05;18;16;
40371;PMS5003;28564;53.346;-6.554;2023-03-11T04:04:33;13;11;
40371;PMS5003;28564;53.346;-6.554;2023-03-11T04:07:02;18;16;
40371;PMS5003;28564;53.346;-6.554;2023-03-11T04:09:30;17;13;
40371;PMS5003;28564;53.346;-6.554;2023-03-11T04:11:58;15;12;
40371;PMS5003;28564;53.346;-6.554;2023-03-11T04:14:25;12;12;
40371;PMS5003;28564;53.346;-6.554;2023-03-11T04:16:52;15;11;
40371;PMS5003;28564;53.346;-6.554;2023-03-11T04:19:19;16;13;
40371;PMS5003;28564;53.346;-6.554;2023-03-11T04:21:47;13;13;
40371;PMS5003;28564;53.346;-6.554;2023-03-11T04:24:14;12;10;
40371;PMS5003;28564;53.346;-6.554;2023-03-11T04:26:41;12;10;
40371;PMS5003;28564;53.346;-6.554;2023-03-11T04:29:09;4;4;
40371;PMS5003;28564;53.346;-6.554;2023-03-11T04:31:36;4;2;
40371;PMS5003;28564;53.346;-6.554;2023-03-11T04:34:04;2;2;
40371;PMS5003;28564;53.346;-6.554;2023-03-11T04:36:31;0;0;
40371;PMS5003;28564;53.346;-6.554;2023-03-11T04:38:58;1;1;
40371;PMS5003;28564;53.346;-6.554;2023-03-11T04:41:26;3;2;
40371;PMS5003;28564;53.346;-6.554;2023-03-11T04:43:53;0;0;
40371;PMS5003;28564;53.346;-6.554;2023-03-11T04:46:20;2;2;
40371;PMS5003;28564;53.346;-6.554;2023-03-11T04:48:48;0;0;
40371;PMS5003;28564;53.346;-6.554;2023-03-11T04:51:15;1;1;
40371;PMS5003;28564;53.346;-6.554;2023-03-11T04:53:43;1;1;
40371;PMS5003;28564;53.346;-6.554;2023-03-11T04:56:10;1;1;
40371;PMS5003;28564;53.346;-6.554;2023-03-11T04:58:37;1;1;
40371;PMS5003;28564;53.346;-6.554;2023-03-11T05:01:05;2;1;
40371;PMS5003;28564;53.346;-6.554;2023-03-11T05:03:32;2;2;
40371;PMS5003;28564;53.346;-6.554;2023-03-11T05:05:59;1;1;
40371;PMS5003;28564;53.346;-6.554;2023-03-11T05:08:27;1;1;
40371;PMS5003;28564;53.346;-6.554;2023-03-11T05:10:54;0;0;
40371;PMS5003;28564;53.346;-6.554;2023-03-11T05:13:21;1;1;
40371;PMS5003;28564;53.346;-6.554;2023-03-11T05:15:49;0;0;
40371;PMS5003;28564;53.346;-6.554;2023-03-11T05:18:16;1;1;
40371;PMS5003;28564;53.346;-6.554;2023-03-11T05:20:44;1;1;
40371;PMS5003;28564;53.346;-6.554;2023-03-11T05:23:11;1;1;
40371;PMS5003;28564;53.346;-6.554;2023-03-11T05:25:38;2;1;
40371;PMS5003;28564;53.346;-6.554;2023-03-11T05:28:06;0;0;
40371;PMS5003;28564;53.346;-6.554;2023-03-11T05:30:33;1;1;
40371;PMS5003;28564;53.346;-6.554;2023-03-11T05:33:00;1;1;
40371;PMS5003;28564;53.346;-6.554;2023-03-11T05:35:28;2;1;
40371;PMS5003;28564;53.346;-6.554;2023-03-11T05:37:55;1;1;
40371;PMS5003;28564;53.346;-6.554;2023-03-11T05:40:23;2;1;
40371;PMS5003;28564;53.346;-6.554;2023-03-11T05:42:50;1;1;
40371;PMS5003;28564;53.346;-6.554;2023-03-11T05:45:17;2;2;
40371;PMS5003;28564;53.346;-6.554;2023-03-11T05:47:45;1;1;
40371;PMS5003;28564;53.346;-6.554;2023-03-11T05:50:12;1;1;
40371;PMS5003;28564;53.346;-6.554;2023-03-11T05:52:40;1;1;
40371;PMS5003;28564;53.346;-6.554;2023-03-11T05:55:07;4;2;
40371;PMS5003;28564;53.346;-6.554;2023-03-11T05:57:35;2;0;
40371;PMS5003;28564;53.346;-6.554;2023-03-11T06:00:03;1;1;
40371;PMS5003;28564;53.346;-6.554;2023-03-11T06:02:32;1;1;
40371;PMS5003;28564;53.346;-6.554;2023-03-11T06:05:00;2;2;
40371;PMS5003;28564;53.346;-6.554;2023-03-11T06:07:27;1;1;
40371;PMS5003;28564;53.346;-6.554;2023-03-11T06:09:54;1;1;
40371;PMS5003;28564;53.346;-6.554;2023-03-11T06:12:22;1;1;
40371;PMS5003;28564;53.346;-6.554;2023-03-11T06:14:49;2;2;
40371;PMS5003;28564;53.346;-6.554;2023-03-11T06:17:18;2;1;
40371;PMS5003;28564;53.346;-6.554;2023-03-11T06:19:45;2;2;
40371;PMS5003;28564;53.346;-6.554;2023-03-11T06:22:13;1;1;
40371;PMS5003;28564;53.346;-6.554;2023-03-11T06:24:40;1;1;
40371;PMS5003;28564;53.346;-6.554;2023-03-11T06:27:08;1;1;
40371;PMS5003;28564;53.346;-6.554;2023-03-11T06:29:35;1;1;
40371;PMS5003;28564;53.346;-6.554;2023-03-11T06:32:03;3;1;
40371;PMS5003;28564;53.346;-6.554;2023-03-11T06:34:31;1;1;
40371;PMS5003;28564;53.346;-6.554;2023-03-11T06:36:58;1;1;
40371;PMS5003;28564;53.346;-6.554;2023-03-11T06:39:25;1;1;
40371;PMS5003;28564;53.346;-6.554;2023-03-11T06:41:53;1;1;
40371;PMS5003;28564;53.346;-6.554;2023-03-11T06:44:20;0;0;
40371;PMS5003;28564;53.346;-6.554;2023-03-11T06:46:48;1;1;
40371;PMS5003;28564;53.346;-6.554;2023-03-11T06:49:15;1;1;
40371;PMS5003;28564;53.346;-6.554;2023-03-11T06:51:42;1;1;
40371;PMS5003;28564;53.346;-6.554;2023-03-11T06:54:10;1;1;
40371;PMS5003;28564;53.346;-6.554;2023-03-11T06:56:38;1;1;
40371;PMS5003;28564;53.346;-6.554;2023-03-11T06:59:05;3;3;
40371;PMS5003;28564;53.346;-6.554;2023-03-11T07:01:33;2;2;
40371;PMS5003;28564;53.346;-6.554;2023-03-11T07:04:00;2;2;
40371;PMS5003;28564;53.346;-6.554;2023-03-11T07:06:28;3;1;
40371;PMS5003;28564;53.346;-6.554;2023-03-11T07:08:55;2;1;
40371;PMS5003;28564;53.346;-6.554;2023-03-11T07:11:23;3;3;
40371;PMS5003;28564;53.346;-6.554;2023-03-11T07:13:50;2;2;
40371;PMS5003;28564;53.346;-6.554;2023-03-11T07:16:19;3;3;
40371;PMS5003;28564;53.346;-6.554;2023-03-11T07:18:49;2;2;
40371;PMS5003;28564;53.346;-6.554;2023-03-11T07:21:19;4;2;
40371;PMS5003;28564;53.346;-6.554;2023-03-11T07:23:48;4;4;
40371;PMS5003;28564;53.346;-6.554;2023-03-11T07:26:18;2;2;
40371;PMS5003;28564;53.346;-6.554;2023-03-11T07:28:47;2;2;
40371;PMS5003;28564;53.346;-6.554;2023-03-11T07:31:15;3;2;
40371;PMS5003;28564;53.346;-6.554;2023-03-11T07:33:43;4;2;
40371;PMS5003;28564;53.346;-6.554;2023-03-11T07:36:11;1;1;
40371;PMS5003;28564;53.346;-6.554;2023-03-11T07:38:40;3;2;
40371;PMS5003;28564;53.346;-6.554;2023-03-11T07:41:08;2;2;
40371;PMS5003;28564;53.346;-6.554;2023-03-11T07:43:37;6;2;
40371;PMS5003;28564;53.346;-6.554;2023-03-11T07:46:06;2;2;
40371;PMS5003;28564;53.346;-6.554;2023-03-11T07:48:36;3;3;
40371;PMS5003;28564;53.346;-6.554;2023-03-11T07:51:05;3;3;
40371;PMS5003;28564;53.346;-6.554;2023-03-11T07:53:35;2;2;
40371;PMS5003;28564;53.346;-6.554;2023-03-11T07:56:02;4;3;
40371;PMS5003;28564;53.346;-6.554;2023-03-11T07:58:30;3;3;
40371;PMS5003;28564;53.346;-6.554;2023-03-11T08:01:02;4;3;
40371;PMS5003;28564;53.346;-6.554;2023-03-11T08:03:29;3;3;
40371;PMS5003;28564;53.346;-6.554;2023-03-11T08:05:57;5;5;
40371;PMS5003;28564;53.346;-6.554;2023-03-11T08:08:24;6;4;
40371;PMS5003;28564;53.346;-6.554;2023-03-11T08:10:52;4;2;
40371;PMS5003;28564;53.346;-6.554;2023-03-11T08:13:20;6;5;
40371;PMS5003;28564;53.346;-6.554;2023-03-11T08:15:47;8;8;
40371;PMS5003;28564;53.346;-6.554;2023-03-11T08:18:15;9;6;
40371;PMS5003;28564;53.346;-6.554;2023-03-11T08:20:42;4;4;
40371;PMS5003;28564;53.346;-6.554;2023-03-11T08:23:09;4;4;
40371;PMS5003;28564;53.346;-6.554;2023-03-11T08:25:37;4;4;
40371;PMS5003;28564;53.346;-6.554;2023-03-11T08:28:05;8;4;
40371;PMS5003;28564;53.346;-6.554;2023-03-11T08:30:33;5;5;
40371;PMS5003;28564;53.346;-6.554;2023-03-11T08:33:01;8;5;
40371;PMS5003;28564;53.346;-6.554;2023-03-11T08:35:28;8;6;
40371;PMS5003;28564;53.346;-6.554;2023-03-11T08:37:55;6;6;
40371;PMS5003;28564;53.346;-6.554;2023-03-11T08:40:23;8;5;
40371;PMS5003;28564;53.346;-6.554;2023-03-11T08:42:50;5;5;
40371;PMS5003;28564;53.346;-6.554;2023-03-11T08:45:17;6;6;
40371;PMS5003;28564;53.346;-6.554;2023-03-11T08:47:44;6;6;
40371;PMS5003;28564;53.346;-6.554;2023-03-11T08:50:13;9;5;
40371;PMS5003;28564;53.346;-6.554;2023-03-11T08:52:42;6;5;
40371;PMS5003;28564;53.346;-6.554;2023-03-11T08:55:11;5;5;
40371;PMS5003;28564;53.346;-6.554;2023-03-11T08:57:39;9;9;
40371;PMS5003;28564;53.346;-6.554;2023-03-11T09:00:07;10;8;
40371;PMS5003;28564;53.346;-6.554;2023-03-11T09:02:35;8;8;
40371;PMS5003;28564;53.346;-6.554;2023-03-11T09:05:04;9;9;
40371;PMS5003;28564;53.346;-6.554;2023-03-11T09:07:32;10;10;
40371;PMS5003;28564;53.346;-6.554;2023-03-11T09:09:59;11;10;
40371;PMS5003;28564;53.346;-6.554;2023-03-11T09:12:26;11;8;
40371;PMS5003;28564;53.346;-6.554;2023-03-11T09:14:53;8;8;
40371;PMS5003;28564;53.346;-6.554;2023-03-11T09:17:21;11;8;
40371;PMS5003;28564;53.346;-6.554;2023-03-11T09:19:48;9;9;
40371;PMS5003;28564;53.346;-6.554;2023-03-11T09:22:16;5;5;
40371;PMS5003;28564;53.346;-6.554;2023-03-11T09:24:43;8;8;
40371;PMS5003;28564;53.346;-6.554;2023-03-11T09:27:10;8;4;
40371;PMS5003;28564;53.346;-6.554;2023-03-11T09:29:37;9;7;
40371;PMS5003;28564;53.346;-6.554;2023-03-11T09:32:05;6;6;
40371;PMS5003;28564;53.346;-6.554;2023-03-11T09:34:32;5;5;
40371;PMS5003;28564;53.346;-6.554;2023-03-11T09:37:00;9;9;
40371;PMS5003;28564;53.346;-6.554;2023-03-11T09:39:27;7;7;
40371;PMS5003;28564;53.346;-6.554;2023-03-11T09:41:55;11;7;
40371;PMS5003;28564;53.346;-6.554;2023-03-11T09:44:27;13;9;
40371;PMS5003;28564;53.346;-6.554;2023-03-11T09:47:02;7;6;
40371;PMS5003;28564;53.346;-6.554;2023-03-11T09:49:51;6;6;
40371;PMS5003;28564;53.346;-6.554;2023-03-11T09:52:33;7;7;
40371;PMS5003;28564;53.346;-6.554;2023-03-11T09:55:11;9;7;
40371;PMS5003;28564;53.346;-6.554;2023-03-11T09:57:53;7;7;
40371;PMS5003;28564;53.346;-6.554;2023-03-11T10:03:54;7;6;
40371;PMS5003;28564;53.346;-6.554;2023-03-11T10:06:27;4;4;
40371;PMS5003;28564;53.346;-6.554;2023-03-11T10:08:58;11;9;
40371;PMS5003;28564;53.346;-6.554;2023-03-11T10:11:36;9;6;
40371;PMS5003;28564;53.346;-6.554;2023-03-11T10:14:18;10;5;
40371;PMS5003;28564;53.346;-6.554;2023-03-11T10:16:56;6;6;
40371;PMS5003;28564;53.346;-6.554;2023-03-11T10:19:35;7;5;
40371;PMS5003;28564;53.346;-6.554;2023-03-11T10:22:12;5;5;
40371;PMS5003;28564;53.346;-6.554;2023-03-11T10:24:49;3;3;
40371;PMS5003;28564;53.346;-6.554;2023-03-11T10:27:25;5;4;
40371;PMS5003;28564;53.346;-6.554;2023-03-11T10:29:59;3;3;
40371;PMS5003;28564;53.346;-6.554;2023-03-11T10:32:34;9;5;
40371;PMS5003;28564;53.346;-6.554;2023-03-11T10:35:13;16;11;
40371;PMS5003;28564;53.346;-6.554;2023-03-11T10:37:43;10;7;
40371;PMS5003;28564;53.346;-6.554;2023-03-11T10:40:24;12;10;
40371;PMS5003;28564;53.346;-6.554;2023-03-11T10:42:56;17;11;
40371;PMS5003;28564;53.346;-6.554;2023-03-11T10:45:26;10;8;
40371;PMS5003;28564;53.346;-6.554;2023-03-11T10:47:58;22;12;
40371;PMS5003;28564;53.346;-6.554;2023-03-11T10:50:25;13;10;
40371;PMS5003;28564;53.346;-6.554;2023-03-11T10:53:09;12;10;
40371;PMS5003;28564;53.346;-6.554;2023-03-11T10:55:44;20;16;
40371;PMS5003;28564;53.346;-6.554;2023-03-11T10:58:15;17;14;
40371;PMS5003;28564;53.346;-6.554;2023-03-11T11:00:43;8;8;
40371;PMS5003;28564;53.346;-6.554;2023-03-11T11:03:20;11;11;
40371;PMS5003;28564;53.346;-6.554;2023-03-11T11:05:56;33;27;
40371;PMS5003;28564;53.346;-6.554;2023-03-11T11:08:25;34;33;
40371;PMS5003;28564;53.346;-6.554;2023-03-11T11:10:53;56;47;
40371;PMS5003;28564;53.346;-6.554;2023-03-11T11:13:22;28;24;
40371;PMS5003;28564;53.346;-6.554;2023-03-11T11:15:52;19;17;
40371;PMS5003;28564;53.346;-6.554;2023-03-11T11:18:22;92;76;
40371;PMS5003;28564;53.346;-6.554;2023-03-11T11:20:54;107;89;
40371;PMS5003;28564;53.346;-6.554;2023-03-11T11:23:24;69;58;
40371;PMS5003;28564;53.346;-6.554;2023-03-11T11:25:55;38;33;
40371;PMS5003;28564;53.346;-6.554;2023-03-11T11:28:24;48;44;
40371;PMS5003;28564;53.346;-6.554;2023-03-11T11:30:53;26;25;
40371;PMS5003;28564;53.346;-6.554;2023-03-11T11:33:22;17;15;
40371;PMS5003;28564;53.346;-6.554;2023-03-11T11:35:53;11;11;
40371;PMS5003;28564;53.346;-6.554;2023-03-11T11:38:30;9;9;
40371;PMS5003;28564;53.346;-6.554;2023-03-11T11:41:00;8;8;
40371;PMS5003;28564;53.346;-6.554;2023-03-11T11:43:32;4;4;
40371;PMS5003;28564;53.346;-6.554;2023-03-11T11:46:10;7;5;
40371;PMS5003;28564;53.346;-6.554;2023-03-11T11:48:46;3;3;
40371;PMS5003;28564;53.346;-6.554;2023-03-11T11:51:21;3;3;
40371;PMS5003;28564;53.346;-6.554;2023-03-11T11:53:54;2;2;
40371;PMS5003;28564;53.346;-6.554;2023-03-11T11:56:23;2;2;
40371;PMS5003;28564;53.346;-6.554;2023-03-11T11:58:51;2;2;
40371;PMS5003;28564;53.346;-6.554;2023-03-11T12:01:19;2;1;
40371;PMS5003;28564;53.346;-6.554;2023-03-11T12:04:07;8;5;
40371;PMS5003;28564;53.346;-6.554;2023-03-11T12:06:53;1;1;
40371;PMS5003;28564;53.346;-6.554;2023-03-11T12:09:33;5;4;
40371;PMS5003;28564;53.346;-6.554;2023-03-11T12:12:07;4;4;
40371;PMS5003;28564;53.346;-6.554;2023-03-11T12:14:42;9;9;
40371;PMS5003;28564;53.346;-6.554;2023-03-11T12:17:15;4;4;
40371;PMS5003;28564;53.346;-6.554;2023-03-11T12:19:48;5;3;
40371;PMS5003;28564;53.346;-6.554;2023-03-11T12:23:46;4;4;
40371;PMS5003;28564;53.346;-6.554;2023-03-11T12:26:21;3;3;
40371;PMS5003;28564;53.346;-6.554;2023-03-11T12:28:53;7;7;
40371;PMS5003;28564;53.346;-6.554;2023-03-11T12:31:26;4;4;
40371;PMS5003;28564;53.346;-6.554;2023-03-11T12:33:55;4;4;
40371;PMS5003;28564;53.346;-6.554;2023-03-11T12:36:28;4;4;
40371;PMS5003;28564;53.346;-6.554;2023-03-11T12:38:57;4;4;
40371;PMS5003;28564;53.346;-6.554;2023-03-11T12:41:28;3;3;
40371;PMS5003;28564;53.346;-6.554;2023-03-11T12:44:05;7;4;
40371;PMS5003;28564;53.346;-6.554;2023-03-11T12:47:22;3;3;
40371;PMS5003;28564;53.346;-6.554;2023-03-11T12:49:50;6;3;
40371;PMS5003;28564;53.346;-6.554;2023-03-11T12:52:21;3;3;
40371;PMS5003;28564;53.346;-6.554;2023-03-11T12:55:22;4;4;
40371;PMS5003;28564;53.346;-6.554;2023-03-11T12:57:57;4;4;
40371;PMS5003;28564;53.346;-6.554;2023-03-11T13:00:39;3;3;
40371;PMS5003;28564;53.346;-6.554;2023-03-11T13:03:28;3;1;
40371;PMS5003;28564;53.346;-6.554;2023-03-11T13:06:11;1;1;
40371;PMS5003;28564;53.346;-6.554;2023-03-11T13:08:48;2;2;
40371;PMS5003;28564;53.346;-6.554;2023-03-11T13:11:49;6;6;
40371;PMS5003;28564;53.346;-6.554;2023-03-11T13:14:20;31;25;
40371;PMS5003;28564;53.346;-6.554;2023-03-11T13:16:53;10;10;
40371;PMS5003;28564;53.346;-6.554;2023-03-11T13:19:47;12;10;
40371;PMS5003;28564;53.346;-6.554;2023-03-11T13:23:29;3;3;
40371;PMS5003;28564;53.346;-6.554;2023-03-11T13:26:04;4;4;
40371;PMS5003;28564;53.346;-6.554;2023-03-11T13:28:44;2;2;
40371;PMS5003;28564;53.346;-6.554;2023-03-11T13:31:28;5;3;
40371;PMS5003;28564;53.346;-6.554;2023-03-11T13:34:10;8;4;
40371;PMS5003;28564;53.346;-6.554;2023-03-11T13:36:45;3;2;
40371;PMS5003;28564;53.346;-6.554;2023-03-11T13:39:25;6;4;
40371;PMS5003;28564;53.346;-6.554;2023-03-11T13:42:02;5;3;
40371;PMS5003;28564;53.346;-6.554;2023-03-11T13:44:41;5;5;
40371;PMS5003;28564;53.346;-6.554;2023-03-11T13:47:12;2;2;
40371;PMS5003;28564;53.346;-6.554;2023-03-11T13:49:42;3;3;
40371;PMS5003;28564;53.346;-6.554;2023-03-11T13:52:17;5;5;
40371;PMS5003;28564;53.346;-6.554;2023-03-11T13:54:52;3;3;
40371;PMS5003;28564;53.346;-6.554;2023-03-11T13:57:24;5;2;
40371;PMS5003;28564;53.346;-6.554;2023-03-11T13:59:55;3;3;
40371;PMS5003;28564;53.346;-6.554;2023-03-11T14:02:24;2;2;
40371;PMS5003;28564;53.346;-6.554;2023-03-11T14:04:54;3;2;
40371;PMS5003;28564;53.346;-6.554;2023-03-11T14:07:25;3;3;
40371;PMS5003;28564;53.346;-6.554;2023-03-11T14:10:27;5;5;
40371;PMS5003;28564;53.346;-6.554;2023-03-11T14:13:14;6;5;
40371;PMS5003;28564;53.346;-6.554;2023-03-11T14:15:43;4;3;
40371;PMS5003;28564;53.346;-6.554;2023-03-11T14:18:26;7;4;
40371;PMS5003;28564;53.346;-6.554;2023-03-11T14:20:55;4;4;
40371;PMS5003;28564;53.346;-6.554;2023-03-11T14:23:25;2;2;
40371;PMS5003;28564;53.346;-6.554;2023-03-11T14:25:58;11;11;
40371;PMS5003;28564;53.346;-6.554;2023-03-11T14:28:28;5;5;
40371;PMS5003;28564;53.346;-6.554;2023-03-11T14:31:00;3;2;
40371;PMS5003;28564;53.346;-6.554;2023-03-11T14:33:28;3;3;
40371;PMS5003;28564;53.346;-6.554;2023-03-11T14:35:56;2;2;
40371;PMS5003;28564;53.346;-6.554;2023-03-11T14:38:25;2;2;
40371;PMS5003;28564;53.346;-6.554;2023-03-11T14:40:55;5;3;
40371;PMS5003;28564;53.346;-6.554;2023-03-11T14:43:23;3;3;
40371;PMS5003;28564;53.346;-6.554;2023-03-11T14:45:52;5;4;
40371;PMS5003;28564;53.346;-6.554;2023-03-11T14:48:22;16;16;
40371;PMS5003;28564;53.346;-6.554;2023-03-11T14:50:53;35;35;
40371;PMS5003;28564;53.346;-6.554;2023-03-11T14:53:24;40;40;
40371;PMS5003;28564;53.346;-6.554;2023-03-11T14:55:56;46;44;
40371;PMS5003;28564;53.346;-6.554;2023-03-11T14:58:27;20;20;
40371;PMS5003;28564;53.346;-6.554;2023-03-11T15:01:00;27;27;
40371;PMS5003;28564;53.346;-6.554;2023-03-11T15:03:32;36;35;
40371;PMS5003;28564;53.346;-6.554;2023-03-11T15:06:03;21;21;
40371;PMS5003;28564;53.346;-6.554;2023-03-11T15:08:34;49;47;
40371;PMS5003;28564;53.346;-6.554;2023-03-11T15:11:24;21;21;
40371;PMS5003;28564;53.346;-6.554;2023-03-11T15:13:52;42;42;
40371;PMS5003;28564;53.346;-6.554;2023-03-11T15:16:23;14;14;
40371;PMS5003;28564;53.346;-6.554;2023-03-11T15:18:57;41;41;
40371;PMS5003;28564;53.346;-6.554;2023-03-11T15:21:26;19;18;
40371;PMS5003;28564;53.346;-6.554;2023-03-11T15:23:55;46;46;
40371;PMS5003;28564;53.346;-6.554;2023-03-11T15:26:27;50;50;
40371;PMS5003;28564;53.346;-6.554;2023-03-11T15:28:57;17;15;
40371;PMS5003;28564;53.346;-6.554;2023-03-11T15:31:28;18;15;
40371;PMS5003;28564;53.346;-6.554;2023-03-11T15:34:30;37;36;
40371;PMS5003;28564;53.346;-6.554;2023-03-11T15:36:59;20;20;
40371;PMS5003;28564;53.346;-6.554;2023-03-11T15:39:47;51;46;
40371;PMS5003;28564;53.346;-6.554;2023-03-11T15:42:17;30;27;
40371;PMS5003;28564;53.346;-6.554;2023-03-11T15:44:48;12;12;
40371;PMS5003;28564;53.346;-6.554;2023-03-11T15:47:42;15;15;
40371;PMS5003;28564;53.346;-6.554;2023-03-11T15:50:15;18;17;
40371;PMS5003;28564;53.346;-6.554;2023-03-11T15:52:45;11;11;
40371;PMS5003;28564;53.346;-6.554;2023-03-11T15:55:13;37;37;
40371;PMS5003;28564;53.346;-6.554;2023-03-11T15:57:40;27;22;
40371;PMS5003;28564;53.346;-6.554;2023-03-11T16:00:16;32;31;
40371;PMS5003;28564;53.346;-6.554;2023-03-11T16:02:45;41;39;
40371;PMS5003;28564;53.346;-6.554;2023-03-11T16:05:14;30;24;
40371;PMS5003;28564;53.346;-6.554;2023-03-11T16:07:43;26;22;
40371;PMS5003;28564;53.346;-6.554;2023-03-11T16:10:11;35;30;
40371;PMS5003;28564;53.346;-6.554;2023-03-11T16:12:40;34;32;
40371;PMS5003;28564;53.346;-6.554;2023-03-11T16:15:13;37;35;
40371;PMS5003;28564;53.346;-6.554;2023-03-11T16:17:45;28;26;
40371;PMS5003;28564;53.346;-6.554;2023-03-11T16:20:13;23;20;
40371;PMS5003;28564;53.346;-6.554;2023-03-11T16:22:40;14;13;
40371;PMS5003;28564;53.346;-6.554;2023-03-11T16:25:09;23;23;
40371;PMS5003;28564;53.346;-6.554;2023-03-11T16:27:44;15;13;
40371;PMS5003;28564;53.346;-6.554;2023-03-11T16:30:12;10;9;
40371;PMS5003;28564;53.346;-6.554;2023-03-11T16:32:40;14;11;
40371;PMS5003;28564;53.346;-6.554;2023-03-11T16:35:07;17;14;
40371;PMS5003;28564;53.346;-6.554;2023-03-11T16:37:35;39;33;
40371;PMS5003;28564;53.346;-6.554;2023-03-11T16:40:02;32;32;
40371;PMS5003;28564;53.346;-6.554;2023-03-11T16:42:30;28;27;
40371;PMS5003;28564;53.346;-6.554;2023-03-11T16:44:58;29;25;
40371;PMS5003;28564;53.346;-6.554;2023-03-11T16:47:25;33;26;